Parish, New York
Current Conditions -  °F | °C
As of 8:54 AM on Saturday 22 Nov 2014 (Local Time) from KFZY Reporting Station
Clear Clear  
Wind Chill: 17°   Ceiling: Unl
Heat Index: 27°   Visibility: 10mi
Dew Point: 11°   Wind: 10mph
Humidity: 51%   Direction: 180°S
Pressure: 30.25"   Gusts: NA
Location:  43.41°N, 76.13°W
Report Text: KFZY 221354Z AUTO 18009KT 10SM CLR M03/M12 A3025 RMK AO2 SLP249 T10281117
Loading
Personal Weather Stations






























Interactive Weather Map New forecast layout! Learn more

10-Day Weather Forecast

Advertisements
Track Severe Weather on mobile